Time;durP1;ratioP1;P1;durP2;ratioP2;P2;SDS_P1;SDS_P2;PMS_P1;PMS_P2;Temp;Humidity;BMP_temperature;BMP_pressure;BME280_temperature;BME280_humidity;BME280_pressure;Samples;Min_cycle;Max_cycle;Signal;HPM_P1;HPM_P2
2021/03/28 00:01:10;;;;;;;10.67;5.37;;;4.40;99.90;;;;;;6142028;23;20417;-78
2021/03/28 00:03:42;;;;;;;12.00;5.73;;;4.40;99.90;;;;;;6105229;23;20410;-78
2021/03/28 00:06:20;;;;;;;11.77;5.43;;;4.40;99.90;;;;;;6106152;23;20436;-78
2021/03/28 00:09:05;;;;;;;11.40;5.55;;;4.40;99.90;;;;;;6106003;23;20429;-78
2021/03/28 00:12:01;;;;;;;8.73;4.93;;;4.40;99.90;;;;;;6132345;23;20600;-78
2021/03/28 00:14:46;;;;;;;11.07;5.90;;;4.40;99.90;;;;;;6107018;23;20449;-79
2021/03/28 00:17:36;;;;;;;10.93;5.50;;;4.40;99.90;;;;;;6107173;23;20472;-79
2021/03/28 00:20:23;;;;;;;11.03;4.73;;;4.30;99.90;;;;;;6131414;23;20433;-79
2021/03/28 00:23:17;;;;;;;8.50;5.07;;;4.30;99.90;;;;;;6130960;23;20417;-79
2021/03/28 00:25:51;;;;;;;12.13;5.53;;;4.30;99.90;;;;;;6147598;23;20437;-79
2021/03/28 00:28:28;;;;;;;14.10;7.10;;;4.30;99.90;;;;;;6156259;23;20429;-78
2021/03/28 00:31:15;;;;;;;10.00;5.10;;;4.30;99.90;;;;;;6131580;23;20460;-78
2021/03/28 00:34:04;;;;;;;10.30;5.17;;;4.30;99.90;;;;;;6111947;23;20417;-78
2021/03/28 00:36:37;;;;;;;12.30;5.50;;;4.30;99.90;;;;;;6141994;23;20714;-78
2021/03/28 00:39:09;;;;;;;9.73;5.43;;;4.20;99.90;;;;;;6131124;23;20426;-78
2021/03/28 00:41:53;;;;;;;13.53;5.73;;;4.30;99.90;;;;;;6156259;23;20928;-78
2021/03/28 00:44:23;;;;;;;12.17;6.00;;;4.30;99.90;;;;;;6131403;23;20496;-78
2021/03/28 00:46:56;;;;;;;10.97;5.70;;;4.20;99.90;;;;;;6156047;23;20421;-78
2021/03/28 00:49:30;;;;;;;10.03;5.30;;;4.30;99.90;;;;;;6130562;23;20444;-79
2021/03/28 00:52:04;;;;;;;11.30;4.97;;;4.30;99.90;;;;;;6132022;23;20417;-79
2021/03/28 00:54:47;;;;;;;13.53;5.83;;;4.20;99.90;;;;;;6155714;23;20496;-79
2021/03/28 00:57:21;;;;;;;13.43;5.40;;;4.20;99.90;;;;;;6131466;23;20507;-79
2021/03/28 01:00:11;;;;;;;11.80;6.10;;;4.20;99.90;;;;;;6155375;23;20444;-79
2021/03/28 01:03:02;;;;;;;8.80;4.60;;;4.20;99.90;;;;;;6131306;23;20425;-78
2021/03/28 01:05:42;;;;;;;12.97;5.07;;;4.20;99.90;;;;;;6142650;23;20386;-78
2021/03/28 01:08:19;;;;;;;13.07;5.10;;;4.20;99.90;;;;;;6142610;23;20445;-79
2021/03/28 01:11:17;;;;;;;12.33;5.13;;;4.20;99.90;;;;;;6155688;23;20486;-79
2021/03/28 01:14:34;;;;;;;10.73;5.20;;;4.20;99.90;;;;;;6143173;23;20399;-79
2021/03/28 01:17:23;;;;;;;9.60;4.53;;;4.20;99.90;;;;;;6132868;23;20441;-79
2021/03/28 01:20:29;;;;;;;14.03;6.37;;;4.20;99.90;;;;;;6128149;23;20456;-79
2021/03/28 01:23:25;;;;;;;13.97;6.77;;;4.10;99.90;;;;;;6132622;23;20486;-78
2021/03/28 01:26:13;;;;;;;12.70;7.70;;;4.10;99.90;;;;;;6130305;23;20425;-78
2021/03/28 01:28:55;;;;;;;12.03;7.57;;;4.10;99.90;;;;;;6140578;23;20512;-78
2021/03/28 01:31:47;;;;;;;12.67;7.70;;;4.10;99.90;;;;;;6104399;23;20425;-78
2021/03/28 01:34:19;;;;;;;15.70;8.47;;;4.10;99.90;;;;;;6104440;23;20406;-79
2021/03/28 01:36:52;;;;;;;11.57;6.93;;;4.10;99.90;;;;;;6104948;23;20785;-79
2021/03/28 01:39:24;;;;;;;10.20;7.30;;;4.20;99.90;;;;;;6104705;23;20437;-79
2021/03/28 01:41:57;;;;;;;18.17;7.50;;;4.10;99.90;;;;;;6105496;23;20437;-79
2021/03/28 01:44:33;;;;;;;11.87;6.23;;;4.20;99.90;;;;;;6141086;23;20378;-79
2021/03/28 01:47:17;;;;;;;12.07;6.87;;;4.20;99.90;;;;;;6129091;23;20440;-79
2021/03/28 01:50:35;;;;;;;11.57;6.30;;;4.20;99.90;;;;;;6129652;23;20516;-78
2021/03/28 01:53:23;;;;;;;13.30;6.20;;;4.20;99.90;;;;;;6118698;23;20417;-78
2021/03/28 01:55:57;;;;;;;13.73;5.27;;;4.20;99.90;;;;;;6106123;23;20488;-78
2021/03/28 01:58:35;;;;;;;9.77;5.80;;;4.20;99.90;;;;;;6140988;23;20785;-78
2021/03/28 02:01:17;;;;;;;8.47;5.27;;;4.20;99.90;;;;;;6140850;23;20417;-78
2021/03/28 02:03:54;;;;;;;10.40;5.43;;;4.20;99.90;;;;;;6140422;23;20727;-78
2021/03/28 02:06:38;;;;;;;11.80;5.93;;;4.20;99.90;;;;;;6104628;23;20412;-78
2021/03/28 02:09:25;;;;;;;12.00;7.03;;;4.30;99.90;;;;;;6129465;23;20460;-78
2021/03/28 02:12:05;;;;;;;10.70;6.03;;;4.30;99.90;;;;;;6140886;23;20391;-78
2021/03/28 02:14:51;;;;;;;11.37;6.30;;;4.30;99.90;;;;;;6141126;23;20385;-78
2021/03/28 02:17:33;;;;;;;11.73;5.43;;;4.30;99.90;;;;;;6141034;23;20849;-78
2021/03/28 02:20:32;;;;;;;10.17;5.50;;;4.30;99.90;;;;;;6140327;23;20389;-78
2021/03/28 02:23:11;;;;;;;10.50;6.13;;;4.30;99.90;;;;;;6140578;23;20390;-78
2021/03/28 02:25:52;;;;;;;8.50;5.07;;;4.30;99.90;;;;;;6145382;23;20936;-78
2021/03/28 02:28:32;;;;;;;10.77;5.33;;;4.30;99.90;;;;;;6153818;23;20437;-78
2021/03/28 02:31:06;;;;;;;11.40;5.43;;;4.30;99.90;;;;;;6130275;23;20464;-78
2021/03/28 02:33:48;;;;;;;10.47;5.27;;;4.30;99.90;;;;;;6129389;23;20417;-78
2021/03/28 02:36:21;;;;;;;9.50;5.50;;;4.30;99.90;;;;;;6140816;23;20382;-78
2021/03/28 02:39:13;;;;;;;10.27;5.03;;;4.30;99.90;;;;;;6129472;23;20824;-78
2021/03/28 02:42:03;;;;;;;11.10;5.90;;;4.40;99.90;;;;;;6140508;23;20923;-78
2021/03/28 02:44:47;;;;;;;9.50;5.37;;;4.40;99.90;;;;;;6129572;23;20417;-78
2021/03/28 02:47:30;;;;;;;10.07;6.43;;;4.40;99.90;;;;;;6153944;23;20413;-78
2021/03/28 02:50:23;;;;;;;8.57;5.17;;;4.40;99.90;;;;;;6129740;23;20813;-78
2021/03/28 02:53:08;;;;;;;6.03;4.63;;;4.40;99.90;;;;;;6128523;23;20421;-78
2021/03/28 02:55:57;;;;;;;8.43;5.57;;;4.40;99.90;;;;;;6141160;23;20402;-78
2021/03/28 02:59:07;;;;;;;11.30;5.80;;;4.50;99.90;;;;;;6069942;23;20193;-78
2021/03/28 03:01:44;;;;;;;10.10;5.13;;;4.50;99.90;;;;;;6118634;23;20810;-78
2021/03/28 03:04:31;;;;;;;11.18;5.57;;;4.50;99.90;;;;;;6130286;23;20414;-80
2021/03/28 03:07:18;;;;;;;8.93;5.20;;;4.50;99.90;;;;;;6129536;23;20220;-78
2021/03/28 03:10:04;;;;;;;11.13;5.87;;;4.50;99.90;;;;;;6140512;23;20432;-78
2021/03/28 03:12:49;;;;;;;13.17;6.30;;;4.50;99.90;;;;;;6140502;23;20433;-78
2021/03/28 03:15:35;;;;;;;9.83;6.00;;;4.50;99.90;;;;;;6140569;23;20416;-78
2021/03/28 03:18:36;;;;;;;10.43;6.50;;;4.50;99.90;;;;;;6139946;23;20825;-78
2021/03/28 03:21:38;;;;;;;10.37;5.10;;;4.50;99.90;;;;;;6128446;23;20935;-79
2021/03/28 03:24:43;;;;;;;10.03;5.80;;;4.50;99.90;;;;;;6140916;23;20687;-79
2021/03/28 03:27:35;;;;;;;8.53;5.50;;;4.50;99.90;;;;;;6105139;23;20417;-79
2021/03/28 03:30:29;;;;;;;10.07;6.17;;;4.50;99.90;;;;;;6051973;23;20441;-79
2021/03/28 03:33:18;;;;;;;11.97;5.97;;;4.50;99.90;;;;;;6103784;23;20453;-78
2021/03/28 03:35:57;;;;;;;12.30;6.10;;;4.50;99.90;;;;;;6104458;23;20413;-78
2021/03/28 03:38:43;;;;;;;11.90;5.83;;;4.50;99.90;;;;;;6106465;23;20432;-78
2021/03/28 03:41:31;;;;;;;8.50;5.30;;;4.50;99.90;;;;;;6142917;23;20417;-78
2021/03/28 03:44:13;;;;;;;15.80;5.43;;;4.50;99.90;;;;;;6142507;23;20386;-78
2021/03/28 03:47:00;;;;;;;11.20;5.17;;;4.50;99.90;;;;;;6142315;23;20437;-78
2021/03/28 03:50:05;;;;;;;11.33;5.83;;;4.60;99.90;;;;;;6130449;23;20441;-78
2021/03/28 03:52:56;;;;;;;12.13;4.50;;;4.60;99.90;;;;;;6063048;23;20421;-78
2021/03/28 03:55:32;;;;;;;8.27;5.40;;;4.60;99.90;;;;;;6142668;23;20397;-78
2021/03/28 03:58:16;;;;;;;12.30;6.53;;;4.60;99.90;;;;;;6142132;23;20441;-78
2021/03/28 04:00:55;;;;;;;11.10;5.73;;;4.60;99.90;;;;;;6130108;23;20439;-78
2021/03/28 04:03:34;;;;;;;8.67;6.10;;;4.60;99.90;;;;;;6106903;23;20436;-79
2021/03/28 04:06:27;;;;;;;11.00;5.20;;;4.60;99.90;;;;;;6130877;23;20464;-79
2021/03/28 04:09:12;;;;;;;13.00;5.13;;;4.60;99.90;;;;;;6106096;23;20441;-79
2021/03/28 04:11:52;;;;;;;8.10;5.70;;;4.60;99.90;;;;;;6106455;23;20413;-79
2021/03/28 04:14:41;;;;;;;8.67;5.40;;;4.70;99.90;;;;;;6142798;23;20385;-79
2021/03/28 04:17:24;;;;;;;12.83;5.27;;;4.70;99.90;;;;;;6130927;23;20441;-79
2021/03/28 04:20:06;;;;;;;9.03;5.37;;;4.70;99.90;;;;;;6106256;23;20776;-78
2021/03/28 04:23:13;;;;;;;9.53;5.63;;;4.60;99.90;;;;;;6130914;23;20527;-78
2021/03/28 04:25:47;;;;;;;8.03;5.07;;;4.70;99.90;;;;;;6142500;23;20904;-78
2021/03/28 04:28:32;;;;;;;7.90;4.50;;;4.70;99.90;;;;;;6106969;23;20468;-78
2021/03/28 04:31:21;;;;;;;12.27;5.67;;;4.60;99.90;;;;;;6143330;23;20700;-78
2021/03/28 04:33:56;;;;;;;8.07;4.70;;;4.60;99.90;;;;;;6108119;23;20413;-78
2021/03/28 04:36:34;;;;;;;6.83;4.60;;;4.70;99.90;;;;;;6146086;23;20386;-78
2021/03/28 04:39:40;;;;;;;11.90;5.63;;;4.70;99.90;;;;;;6142208;23;20441;-78
2021/03/28 04:42:45;;;;;;;9.43;5.30;;;4.70;99.90;;;;;;6157482;23;20409;-78
2021/03/28 04:45:47;;;;;;;12.73;5.20;;;4.70;99.90;;;;;;6109130;23;20469;-78
2021/03/28 04:48:39;;;;;;;8.67;4.73;;;4.70;99.90;;;;;;6129795;23;20448;-78
2021/03/28 04:51:36;;;;;;;9.83;4.77;;;4.70;99.90;;;;;;6106014;23;20532;-78
2021/03/28 04:54:38;;;;;;;13.13;6.07;;;4.70;99.90;;;;;;6130345;23;20468;-78
2021/03/28 04:57:23;;;;;;;9.13;5.57;;;4.70;99.90;;;;;;6087729;23;20495;-78
2021/03/28 05:00:21;;;;;;;9.53;5.87;;;4.70;99.90;;;;;;6141871;23;20417;-78
2021/03/28 05:03:09;;;;;;;11.43;5.43;;;4.70;99.90;;;;;;6142136;23;20449;-79
2021/03/28 05:05:51;;;;;;;9.67;6.67;;;4.70;99.90;;;;;;6106013;23;20410;-79
2021/03/28 05:08:55;;;;;;;10.70;5.07;;;4.70;99.90;;;;;;6106281;23;20445;-79
2021/03/28 05:11:58;;;;;;;8.00;5.50;;;4.70;99.90;;;;;;6130348;23;20861;-78
2021/03/28 05:14:52;;;;;;;9.67;5.53;;;4.70;99.90;;;;;;6141812;23;20401;-78
2021/03/28 05:18:04;;;;;;;14.77;5.83;;;4.70;99.90;;;;;;6076681;23;20492;-79
2021/03/28 05:20:59;;;;;;;13.37;5.93;;;4.70;99.90;;;;;;6106485;23;20409;-79
2021/03/28 05:24:10;;;;;;;10.17;5.60;;;4.60;99.90;;;;;;6106421;23;20881;-79
2021/03/28 05:27:06;;;;;;;16.10;7.87;;;4.70;99.90;;;;;;6106248;23;20425;-79
2021/03/28 05:30:09;;;;;;;9.83;5.90;;;4.70;99.90;;;;;;6106511;23;20445;-79
2021/03/28 05:33:19;;;;;;;10.93;6.53;;;4.70;99.90;;;;;;6105042;23;20489;-78
2021/03/28 05:36:06;;;;;;;12.13;6.53;;;4.70;99.90;;;;;;6037119;23;20757;-78
2021/03/28 05:39:17;;;;;;;9.77;7.47;;;4.70;99.90;;;;;;6142018;23;20472;-78
2021/03/28 05:42:23;;;;;;;13.25;6.18;;;4.70;99.90;;;;;;6104954;23;20421;-78
2021/03/28 05:45:18;;;;;;;9.90;6.80;;;4.90;99.90;;;;;;6106417;23;20179;-78
2021/03/28 05:48:17;;;;;;;9.27;6.10;;;4.90;99.90;;;;;;6142078;23;20397;-78
2021/03/28 05:50:53;;;;;;;9.38;6.45;;;4.90;99.90;;;;;;6111009;23;20490;-78
2021/03/28 05:54:04;;;;;;;12.23;6.60;;;4.90;99.90;;;;;;6139342;23;20162;-78
2021/03/28 05:57:23;;;;;;;10.10;5.70;;;5.00;99.90;;;;;;6114981;23;20433;-78
2021/03/28 06:00:05;;;;;;;10.63;6.10;;;5.00;99.90;;;;;;6150853;23;20426;-78
2021/03/28 06:03:01;;;;;;;9.67;6.70;;;4.90;99.90;;;;;;6140079;23;20429;-78
2021/03/28 06:06:19;;;;;;;14.60;6.30;;;5.00;99.90;;;;;;6142639;23;20386;-79
2021/03/28 06:09:22;;;;;;;9.17;6.50;;;5.00;99.90;;;;;;6105970;23;20433;-79
2021/03/28 06:12:17;;;;;;;8.60;5.83;;;5.00;99.90;;;;;;6105938;23;20409;-79
2021/03/28 06:15:08;;;;;;;13.90;6.90;;;5.10;99.90;;;;;;6108185;23;20425;-79
2021/03/28 06:18:17;;;;;;;12.63;6.50;;;5.20;99.90;;;;;;6129579;23;20421;-79
2021/03/28 06:21:13;;;;;;;11.60;6.03;;;5.20;99.90;;;;;;6104959;23;20417;-79
2021/03/28 06:24:25;;;;;;;9.60;6.30;;;5.30;99.90;;;;;;6129292;23;20420;-79
2021/03/28 06:27:17;;;;;;;12.37;6.40;;;5.30;99.90;;;;;;6105110;23;20472;-79
2021/03/28 06:30:26;;;;;;;12.53;6.90;;;5.40;99.90;;;;;;6129517;23;20550;-79
2021/03/28 06:33:36;;;;;;;10.10;5.90;;;5.50;99.90;;;;;;6104854;23;20401;-79
2021/03/28 06:36:29;;;;;;;8.97;6.00;;;5.50;99.90;;;;;;6094015;23;20421;-79
2021/03/28 06:39:36;;;;;;;13.40;7.70;;;5.60;99.90;;;;;;6104818;23;20445;-79
2021/03/28 06:42:38;;;;;;;9.70;5.90;;;5.70;99.90;;;;;;6140588;23;20417;-79
2021/03/28 06:45:38;;;;;;;8.37;6.07;;;5.80;99.90;;;;;;6104136;23;20770;-79
2021/03/28 06:48:54;;;;;;;11.10;5.97;;;6.10;99.90;;;;;;6104514;23;20441;-79
2021/03/28 06:51:59;;;;;;;13.80;6.50;;;6.40;99.90;;;;;;6105141;23;20412;-79
2021/03/28 06:54:59;;;;;;;8.67;4.90;;;6.40;99.90;;;;;;6096743;23;20428;-80
2021/03/28 06:58:12;;;;;;;10.63;6.60;;;6.50;99.90;;;;;;6105470;23;20429;-80
2021/03/28 07:01:21;;;;;;;10.40;5.27;;;6.60;99.90;;;;;;6105116;23;20730;-79
2021/03/28 07:04:23;;;;;;;8.07;5.17;;;6.70;99.90;;;;;;6098127;23;20443;-79
2021/03/28 07:07:02;;;;;;;8.57;4.93;;;6.90;99.90;;;;;;6105026;23;20412;-79
2021/03/28 07:09:45;;;;;;;8.50;4.80;;;7.10;99.90;;;;;;6103495;23;20437;-79
2021/03/28 07:12:27;;;;;;;9.30;4.90;;;7.20;99.90;;;;;;6141549;23;20852;-79
2021/03/28 07:15:22;;;;;;;5.87;4.30;;;7.30;99.90;;;;;;6119034;23;20390;-79
2021/03/28 07:18:33;;;;;;;8.63;4.47;;;7.40;99.90;;;;;;6106507;23;20419;-79
2021/03/28 07:21:26;;;;;;;9.00;4.10;;;7.40;99.90;;;;;;6113370;23;20865;-79
2021/03/28 07:24:54;;;;;;;5.40;3.80;;;7.50;99.90;;;;;;6105533;23;20444;-79
2021/03/28 07:28:01;;;;;;;7.77;4.80;;;7.50;99.90;;;;;;6141837;23;20454;-79
2021/03/28 07:30:50;;;;;;;8.20;3.97;;;7.60;99.90;;;;;;6106487;23;20456;-79
2021/03/28 07:34:03;;;;;;;6.70;3.90;;;7.70;99.90;;;;;;6105707;23;20413;-79
2021/03/28 07:37:09;;;;;;;6.00;4.30;;;7.70;99.90;;;;;;6142376;23;20381;-79
2021/03/28 07:39:57;;;;;;;7.53;4.17;;;7.70;99.90;;;;;;6142960;23;20472;-79
2021/03/28 07:42:54;;;;;;;9.03;4.00;;;7.80;99.90;;;;;;6131345;23;20437;-79
2021/03/28 07:45:46;;;;;;;9.03;4.03;;;7.90;99.90;;;;;;6106903;23;20891;-79
2021/03/28 07:48:58;;;;;;;7.43;4.20;;;8.00;99.90;;;;;;6143156;23;20424;-79
2021/03/28 07:52:05;;;;;;;7.70;4.27;;;8.10;99.90;;;;;;6107167;23;20483;-80
2021/03/28 07:54:48;;;;;;;5.80;4.03;;;8.10;99.90;;;;;;6106631;23;20480;-80
2021/03/28 07:57:55;;;;;;;6.77;3.73;;;8.20;99.90;;;;;;6106210;23;20410;-79
2021/03/28 08:00:53;;;;;;;8.00;4.43;;;8.30;99.90;;;;;;6129624;23;20429;-80
2021/03/28 08:04:03;;;;;;;5.77;3.57;;;8.30;99.90;;;;;;6143123;23;20422;-80
2021/03/28 08:06:40;;;;;;;5.17;3.37;;;8.40;99.90;;;;;;6098721;23;20904;-80
2021/03/28 08:09:51;;;;;;;10.60;4.40;;;8.40;99.90;;;;;;6141110;23;20782;-80
2021/03/28 08:12:39;;;;;;;5.60;3.93;;;8.50;99.90;;;;;;6037311;23;20177;-79
2021/03/28 08:15:39;;;;;;;10.77;3.97;;;8.50;99.90;;;;;;6141187;23;20388;-79
2021/03/28 08:18:26;;;;;;;8.90;3.97;;;8.50;99.90;;;;;;6104867;23;20433;-79
2021/03/28 08:21:08;;;;;;;8.53;4.10;;;8.50;99.90;;;;;;6129209;23;20436;-79
2021/03/28 08:24:10;;;;;;;10.33;5.17;;;8.50;99.90;;;;;;6137759;23;20401;-79
2021/03/28 08:26:52;;;;;;;5.33;3.77;;;8.60;99.90;;;;;;6090110;23;20909;-79
2021/03/28 08:29:33;;;;;;;13.60;4.10;;;8.60;99.90;;;;;;6112659;23;20909;-79
2021/03/28 08:32:16;;;;;;;8.37;4.73;;;8.70;99.90;;;;;;6075680;23;20783;-79
2021/03/28 08:35:24;;;;;;;7.77;3.77;;;8.80;99.90;;;;;;6073732;23;20417;-78
2021/03/28 08:38:39;;;;;;;10.97;3.80;;;8.90;99.90;;;;;;6077948;23;20418;-78
2021/03/28 08:41:35;;;;;;;9.27;4.47;;;9.10;99.90;;;;;;6018963;23;20426;-79
2021/03/28 08:47:53;;;;;;;8.10;3.70;;;9.30;99.90;;;;;;6109893;23;20398;-79
2021/03/28 08:50:30;;;;;;;6.80;3.03;;;9.40;99.90;;;;;;6075224;23;20454;-79
2021/03/28 08:53:32;;;;;;;10.40;3.80;;;9.50;99.90;;;;;;6111803;23;20885;-79
2021/03/28 08:56:45;;;;;;;8.63;3.23;;;9.70;99.90;;;;;;6072341;23;20501;-79
2021/03/28 08:59:19;;;;;;;6.47;2.90;;;9.80;99.90;;;;;;6096519;23;20438;-79
2021/03/28 09:01:54;;;;;;;7.33;3.30;;;10.00;99.90;;;;;;6070415;23;20742;-79
2021/03/28 09:04:37;;;;;;;7.60;3.13;;;10.10;99.90;;;;;;6070267;23;20832;-79
2021/03/28 09:07:13;;;;;;;4.57;2.87;;;10.10;99.90;;;;;;6094561;23;20937;-79
2021/03/28 09:10:07;;;;;;;4.47;2.50;;;10.30;99.90;;;;;;6094064;23;20434;-79
2021/03/28 09:12:56;;;;;;;7.07;2.90;;;10.40;99.90;;;;;;6070327;23;20414;-79
2021/03/28 09:15:55;;;;;;;7.07;3.10;;;10.50;99.90;;;;;;6094454;23;20441;-79
2021/03/28 09:18:38;;;;;;;7.00;2.80;;;10.60;99.90;;;;;;6072839;23;20782;-79
2021/03/28 09:21:37;;;;;;;8.57;3.33;;;10.60;99.90;;;;;;6107854;23;20386;-79
2021/03/28 09:24:17;;;;;;;11.17;3.93;;;10.70;99.90;;;;;;6074521;23;20406;-79
2021/03/28 09:26:53;;;;;;;6.00;2.80;;;10.70;99.90;;;;;;6101588;23;20468;-79
2021/03/28 09:29:34;;;;;;;5.63;3.20;;;10.70;99.90;;;;;;6137001;23;20417;-79
2021/03/28 09:32:38;;;;;;;4.70;2.90;;;10.80;99.90;;;;;;6100932;23;20416;-78
2021/03/28 09:35:20;;;;;;;5.23;2.97;;;10.80;99.90;;;;;;6059517;23;20424;-78
2021/03/28 09:37:54;;;;;;;4.43;2.80;;;10.90;99.90;;;;;;6100969;23;20881;-79
2021/03/28 09:40:31;;;;;;;9.20;4.47;;;11.00;99.90;;;;;;6136835;23;20390;-79
2021/03/28 09:43:29;;;;;;;6.57;3.23;;;11.10;99.90;;;;;;6100899;23;20488;-79
2021/03/28 09:46:35;;;;;;;6.90;3.33;;;11.10;99.90;;;;;;6097683;23;20476;-79
2021/03/28 09:49:20;;;;;;;5.70;2.90;;;11.20;99.90;;;;;;6125735;23;20524;-79
2021/03/28 09:52:15;;;;;;;7.43;3.20;;;11.30;99.90;;;;;;6137273;23;20834;-79
2021/03/28 09:55:18;;;;;;;10.30;3.53;;;11.40;99.90;;;;;;6136546;23;20401;-79
2021/03/28 09:58:13;;;;;;;7.40;2.90;;;11.50;99.90;;;;;;6121863;23;20731;-79
2021/03/28 10:01:11;;;;;;;9.70;3.27;;;11.60;99.90;;;;;;6100698;23;20414;-79
2021/03/28 10:03:50;;;;;;;5.60;3.90;;;11.80;99.90;;;;;;6086114;23;20822;-79
2021/03/28 10:06:21;;;;;;;7.07;3.50;;;11.80;99.90;;;;;;6100940;23;20710;-79
2021/03/28 10:08:57;;;;;;;7.03;3.17;;;11.90;99.90;;;;;;6136949;23;20425;-79
2021/03/28 10:11:32;;;;;;;10.47;3.30;;;12.00;99.90;;;;;;6100731;23;20445;-79
2021/03/28 10:14:31;;;;;;;8.20;3.70;;;12.10;99.90;;;;;;6137039;23;20389;-79
2021/03/28 10:17:23;;;;;;;7.83;2.97;;;12.20;99.90;;;;;;6100717;23;20413;-79
2021/03/28 10:19:54;;;;;;;9.57;3.10;;;12.30;99.90;;;;;;6137640;23;20425;-79
2021/03/28 10:22:42;;;;;;;5.77;2.90;;;12.40;99.90;;;;;;6100527;23;20437;-79
2021/03/28 10:25:40;;;;;;;6.20;2.60;;;12.50;99.90;;;;;;6110837;23;20424;-79
2021/03/28 10:28:55;;;;;;;7.07;2.87;;;12.50;99.90;;;;;;6125069;23;20433;-79
2021/03/28 10:31:34;;;;;;;6.83;2.50;;;12.60;99.90;;;;;;6136386;23;20390;-79
2021/03/28 10:34:31;;;;;;;5.33;2.40;;;12.60;99.90;;;;;;6125504;23;20413;-79
2021/03/28 10:37:15;;;;;;;4.20;2.10;;;12.70;99.90;;;;;;6137059;23;20401;-79
2021/03/28 10:39:57;;;;;;;5.77;2.30;;;12.70;99.90;;;;;;6150540;23;20433;-79
2021/03/28 10:42:42;;;;;;;10.40;3.10;;;12.70;99.90;;;;;;6124845;23;20939;-79
2021/03/28 10:45:27;;;;;;;6.97;2.23;;;12.80;99.90;;;;;;6125194;23;20417;-79
2021/03/28 10:48:35;;;;;;;7.10;2.33;;;12.80;99.90;;;;;;6138398;23;20381;-79
2021/03/28 10:51:36;;;;;;;5.87;2.90;;;12.80;99.90;;;;;;6151372;23;20816;-79
2021/03/28 10:54:33;;;;;;;5.57;2.40;;;12.80;99.90;;;;;;6103678;23;20759;-79
2021/03/28 10:57:53;;;;;;;8.40;3.40;;;12.90;99.90;;;;;;6127461;23;20410;-78
2021/03/28 11:01:08;;;;;;;6.07;2.97;;;12.90;99.90;;;;;;6151607;23;20399;-79
2021/03/28 11:04:30;;;;;;;5.87;3.13;;;13.00;99.90;;;;;;6127288;23;20825;-79
2021/03/28 11:07:33;;;;;;;5.53;3.20;;;13.00;99.90;;;;;;6060462;23;20422;-76
2021/03/28 11:10:25;;;;;;;11.73;3.60;;;13.10;99.90;;;;;;6090795;23;20444;-77
2021/03/28 11:13:36;;;;;;;8.70;3.50;;;13.10;99.90;;;;;;6126843;23;20903;-77
2021/03/28 11:16:15;;;;;;;9.00;3.17;;;13.20;99.90;;;;;;6098998;23;20417;-78
2021/03/28 11:19:32;;;;;;;3.93;2.90;;;13.30;99.90;;;;;;6151167;23;20928;-78
2021/03/28 11:22:20;;;;;;;4.87;2.60;;;13.30;99.90;;;;;;6126318;23;20432;-78
2021/03/28 11:25:19;;;;;;;4.47;3.00;;;13.30;99.90;;;;;;6151290;23;20436;-78
2021/03/28 11:28:29;;;;;;;6.83;2.60;;;13.30;99.90;;;;;;6088001;23;20417;-78
2021/03/28 11:31:11;;;;;;;5.73;2.57;;;13.30;99.90;;;;;;6122919;23;20420;-78
2021/03/28 11:33:43;;;;;;;7.33;2.27;;;13.30;99.90;;;;;;6137737;23;20766;-78
2021/03/28 11:36:19;;;;;;;7.93;3.30;;;13.30;99.90;;;;;;6137739;23;20385;-78
2021/03/28 11:39:16;;;;;;;3.47;3.17;;;13.20;99.90;;;;;;6126115;23;20916;-78
2021/03/28 11:41:51;;;;;;;6.82;2.50;;;13.20;99.90;;;;;;6116111;23;20869;-78
2021/03/28 11:44:35;;;;;;;14.13;5.07;;;13.30;99.90;;;;;;6126172;23;20448;-78
2021/03/28 11:47:25;;;;;;;6.37;3.00;;;13.20;99.90;;;;;;6126356;23;20805;-78
2021/03/28 11:50:08;;;;;;;5.03;3.35;;;13.20;99.90;;;;;;6150347;23;20456;-78
2021/03/28 11:52:58;;;;;;;5.03;3.40;;;13.10;99.90;;;;;;6126439;23;20165;-77
2021/03/28 11:55:42;;;;;;;5.57;3.70;;;13.10;99.90;;;;;;6125973;23;20417;-77
2021/03/28 11:58:28;;;;;;;4.60;2.90;;;13.00;99.90;;;;;;6125784;23;20951;-77
2021/03/28 12:00:56;;;;;;;6.07;2.60;;;13.00;99.90;;;;;;6125688;23;20417;-78
2021/03/28 12:03:43;;;;;;;8.53;3.37;;;13.00;99.90;;;;;;6137192;23;20520;-77
2021/03/28 12:06:49;;;;;;;7.33;3.40;;;13.00;99.90;;;;;;6150448;23;20424;-77
2021/03/28 12:09:28;;;;;;;6.77;2.90;;;13.00;99.90;;;;;;6137256;23;20420;-77
2021/03/28 12:12:00;;;;;;;5.10;3.40;;;13.10;99.90;;;;;;6150649;23;20417;-77
2021/03/28 12:14:32;;;;;;;8.63;2.90;;;13.00;99.90;;;;;;6137766;23;20382;-77
2021/03/28 12:17:31;;;;;;;8.10;3.03;;;13.00;99.90;;;;;;6137647;23;20390;-77
2021/03/28 12:20:19;;;;;;;6.83;3.20;;;12.90;99.90;;;;;;6125904;23;20447;-77
2021/03/28 12:22:57;;;;;;;10.30;3.43;;;12.90;99.90;;;;;;6137119;23;20422;-78
2021/03/28 12:25:42;;;;;;;5.93;3.00;;;12.90;99.90;;;;;;6137311;23;20409;-77
2021/03/28 12:28:33;;;;;;;5.67;3.30;;;12.80;99.90;;;;;;6101716;23;20449;-77
2021/03/28 12:31:28;;;;;;;9.07;3.90;;;12.80;99.90;;;;;;6137613;23;20385;-77
2021/03/28 12:34:14;;;;;;;6.17;3.43;;;12.70;99.90;;;;;;6125968;23;20409;-77
2021/03/28 12:36:55;;;;;;;5.33;3.30;;;12.70;99.90;;;;;;6125783;23;20417;-78
2021/03/28 12:39:26;;;;;;;5.90;3.40;;;12.60;99.90;;;;;;6137265;23;20421;-77
2021/03/28 12:42:25;;;;;;;6.00;3.60;;;12.60;99.90;;;;;;6137176;23;20457;-78
2021/03/28 12:44:57;;;;;;;7.57;3.80;;;12.60;99.90;;;;;;6125811;23;20483;-77
2021/03/28 12:47:26;;;;;;;7.90;3.37;;;12.50;99.90;;;;;;6137046;23;20393;-77
2021/03/28 12:49:59;;;;;;;10.57;3.63;;;12.40;99.90;;;;;;6101209;23;20429;-77
2021/03/28 12:52:38;;;;;;;6.80;3.80;;;12.40;99.90;;;;;;6137322;23;20389;-77
2021/03/28 12:55:38;;;;;;;7.90;4.00;;;12.30;99.90;;;;;;6101093;23;20428;-78
2021/03/28 12:58:24;;;;;;;4.07;3.63;;;12.30;99.90;;;;;;6100952;23;20496;-77
2021/03/28 13:00:55;;;;;;;5.40;3.63;;;12.30;99.90;;;;;;6101052;23;20409;-77
2021/03/28 13:03:37;;;;;;;7.70;3.77;;;12.20;99.90;;;;;;6136915;23;20855;-78
2021/03/28 13:06:16;;;;;;;5.70;3.47;;;12.20;99.90;;;;;;6101010;23;20456;-77
2021/03/28 13:08:49;;;;;;;5.13;3.90;;;12.20;99.90;;;;;;6125213;23;20445;-77
2021/03/28 13:11:18;;;;;;;9.30;3.95;;;12.10;99.90;;;;;;6136637;23;20406;-78
2021/03/28 13:13:49;;;;;;;5.37;4.07;;;12.10;99.90;;;;;;6100748;23;20250;-78
2021/03/28 13:16:25;;;;;;;6.10;3.70;;;12.10;99.90;;;;;;6100632;23;20409;-78
2021/03/28 13:18:56;;;;;;;5.50;3.37;;;12.10;99.90;;;;;;6100825;23;20459;-78
2021/03/28 13:21:25;;;;;;;7.60;3.80;;;12.10;99.90;;;;;;6101656;23;20446;-78
2021/03/28 13:24:03;;;;;;;6.73;3.93;;;12.00;99.90;;;;;;6102647;23;20189;-78
2021/03/28 13:26:32;;;;;;;7.20;4.37;;;12.00;99.90;;;;;;6102575;23;20818;-78
2021/03/28 13:29:21;;;;;;;7.73;3.93;;;12.00;99.90;;;;;;6138364;23;20971;-78
2021/03/28 13:31:54;;;;;;;5.33;4.17;;;11.90;99.90;;;;;;6102564;23;20418;-78
2021/03/28 13:34:31;;;;;;;6.77;4.70;;;11.90;99.90;;;;;;6137783;23;20394;-78
2021/03/28 13:37:10;;;;;;;6.97;4.27;;;11.90;99.90;;;;;;6137619;23;20393;-78
2021/03/28 13:39:42;;;;;;;6.20;3.93;;;11.90;99.90;;;;;;6137017;23;20417;-78
2021/03/28 13:42:24;;;;;;;8.43;4.60;;;11.90;99.90;;;;;;6101135;23;20522;-78
2021/03/28 13:45:22;;;;;;;6.70;4.00;;;11.90;99.90;;;;;;6101284;23;20445;-78
2021/03/28 13:47:52;;;;;;;7.67;4.17;;;11.90;99.90;;;;;;6101342;23;20488;-78
2021/03/28 13:50:47;;;;;;;8.27;4.57;;;11.90;99.90;;;;;;6102020;23;20777;-78
2021/03/28 13:53:36;;;;;;;5.70;3.90;;;11.90;99.90;;;;;;6137593;23;20377;-79
2021/03/28 13:56:24;;;;;;;8.17;3.87;;;11.90;99.90;;;;;;6137120;23;20437;-78
2021/03/28 13:59:20;;;;;;;8.87;4.23;;;11.90;99.90;;;;;;6126151;23;20433;-78
2021/03/28 14:01:51;;;;;;;6.43;4.57;;;11.90;99.90;;;;;;6113261;23;21017;-78
2021/03/28 14:04:28;;;;;;;6.13;4.20;;;11.90;99.90;;;;;;6136796;23;20385;-78
2021/03/28 14:07:16;;;;;;;7.80;4.30;;;11.80;99.90;;;;;;6136873;23;20385;-78
2021/03/28 14:09:49;;;;;;;7.80;4.40;;;11.80;99.90;;;;;;6101602;23;20491;-79
2021/03/28 14:12:25;;;;;;;7.60;3.93;;;11.70;99.90;;;;;;6137156;23;20755;-78
2021/03/28 14:15:24;;;;;;;5.80;3.97;;;11.70;99.90;;;;;;6137111;23;20765;-77
2021/03/28 14:17:57;;;;;;;6.00;4.40;;;11.70;99.90;;;;;;6101600;23;20425;-78
2021/03/28 14:20:30;;;;;;;7.60;5.17;;;11.70;99.90;;;;;;6137281;23;20416;-77
2021/03/28 14:23:01;;;;;;;6.57;4.30;;;11.70;99.90;;;;;;6101259;23;20504;-78
2021/03/28 14:25:33;;;;;;;6.60;4.37;;;11.60;99.90;;;;;;6136797;23;20424;-78
2021/03/28 14:28:45;;;;;;;8.40;4.87;;;11.60;99.90;;;;;;6137235;23;20448;-78
2021/03/28 14:31:26;;;;;;;8.83;4.27;;;11.50;99.90;;;;;;6101287;23;20881;-78
2021/03/28 14:34:16;;;;;;;8.63;4.10;;;11.50;99.90;;;;;;6137282;23;20378;-78
2021/03/28 14:37:12;;;;;;;7.07;4.67;;;11.50;99.90;;;;;;6101137;23;20509;-78
2021/03/28 14:40:10;;;;;;;7.90;4.40;;;11.40;99.90;;;;;;6137390;23;20908;-78
2021/03/28 14:42:48;;;;;;;4.60;4.07;;;11.40;99.90;;;;;;6101304;23;20437;-78
2021/03/28 14:45:21;;;;;;;5.50;4.50;;;11.30;99.90;;;;;;6137361;23;20723;-78